sensor_id;sensor_type;location;lat;lon;timestamp;pressure;altitude;pressure_sealevel;temperature;humidity
23619;BME280;18207;32.078;34.818;2022-08-01T00:02:22;99832.69;;;32.52;45.51
23619;BME280;18207;32.078;34.818;2022-08-01T00:04:55;99840.84;;;32.50;45.81
23619;BME280;18207;32.078;34.818;2022-08-01T00:07:26;99842.13;;;32.49;45.60
23619;BME280;18207;32.078;34.818;2022-08-01T00:09:57;99842.53;;;32.48;45.97
23619;BME280;18207;32.078;34.818;2022-08-01T00:12:28;99836.06;;;32.47;46.02
23619;BME280;18207;32.078;34.818;2022-08-01T00:15:00;99843.00;;;32.46;45.64
23619;BME280;18207;32.078;34.818;2022-08-01T00:17:32;99841.84;;;32.44;45.62
23619;BME280;18207;32.078;34.818;2022-08-01T00:20:09;99842.63;;;32.44;46.04
23619;BME280;18207;32.078;34.818;2022-08-01T00:22:41;99840.22;;;32.43;46.41
23619;BME280;18207;32.078;34.818;2022-08-01T00:25:12;99849.19;;;32.41;45.69
23619;BME280;18207;32.078;34.818;2022-08-01T00:27:43;99853.63;;;32.42;45.63
23619;BME280;18207;32.078;34.818;2022-08-01T00:30:15;99849.19;;;32.41;46.15
23619;BME280;18207;32.078;34.818;2022-08-01T00:32:48;99853.63;;;32.42;46.07
23619;BME280;18207;32.078;34.818;2022-08-01T00:35:20;99848.38;;;32.41;46.08
23619;BME280;18207;32.078;34.818;2022-08-01T00:37:50;99850.44;;;32.40;45.76
23619;BME280;18207;32.078;34.818;2022-08-01T00:40:22;99854.53;;;32.39;45.69
23619;BME280;18207;32.078;34.818;2022-08-01T00:42:53;99852.91;;;32.38;45.64
23619;BME280;18207;32.078;34.818;2022-08-01T00:45:24;99849.25;;;32.38;46.24
23619;BME280;18207;32.078;34.818;2022-08-01T00:47:57;99849.69;;;32.36;46.12
23619;BME280;18207;32.078;34.818;2022-08-01T00:50:28;99846.50;;;32.34;45.83
23619;BME280;18207;32.078;34.818;2022-08-01T00:53:01;99853.41;;;32.33;46.47
23619;BME280;18207;32.078;34.818;2022-08-01T00:55:33;99851.81;;;32.32;46.04
23619;BME280;18207;32.078;34.818;2022-08-01T00:58:05;99851.00;;;32.32;45.81
23619;BME280;18207;32.078;34.818;2022-08-01T01:00:39;99855.53;;;32.29;46.51
23619;BME280;18207;32.078;34.818;2022-08-01T01:03:24;99849.03;;;32.29;46.48
23619;BME280;18207;32.078;34.818;2022-08-01T01:06:28;99847.44;;;32.28;46.42
23619;BME280;18207;32.078;34.818;2022-08-01T01:09:31;99845.03;;;32.26;45.94
23619;BME280;18207;32.078;34.818;2022-08-01T01:12:17;99849.13;;;32.25;46.28
23619;BME280;18207;32.078;34.818;2022-08-01T01:15:04;99855.25;;;32.24;46.14
23619;BME280;18207;32.078;34.818;2022-08-01T01:17:42;99851.22;;;32.22;46.47
23619;BME280;18207;32.078;34.818;2022-08-01T01:20:26;99854.50;;;32.20;46.57
23619;BME280;18207;32.078;34.818;2022-08-01T01:23:15;99846.41;;;32.19;46.31
23619;BME280;18207;32.078;34.818;2022-08-01T01:26:31;99852.97;;;32.16;46.57
23619;BME280;18207;32.078;34.818;2022-08-01T01:29:16;99844.88;;;32.14;46.11
23619;BME280;18207;32.078;34.818;2022-08-01T01:31:56;99850.97;;;32.13;46.10
23619;BME280;18207;32.078;34.818;2022-08-01T01:34:29;99844.50;;;32.12;46.17
23619;BME280;18207;32.078;34.818;2022-08-01T01:37:06;99853.50;;;32.11;46.05
23619;BME280;18207;32.078;34.818;2022-08-01T01:39:42;99846.59;;;32.08;46.28
23619;BME280;18207;32.078;34.818;2022-08-01T01:42:23;99854.34;;;32.08;46.15
23619;BME280;18207;32.078;34.818;2022-08-01T01:44:58;99850.69;;;32.07;46.56
23619;BME280;18207;32.078;34.818;2022-08-01T01:47:32;99845.41;;;32.06;46.03
23619;BME280;18207;32.078;34.818;2022-08-01T01:50:05;99846.66;;;32.05;46.70
23619;BME280;18207;32.078;34.818;2022-08-01T01:52:42;99844.63;;;32.05;46.73
23619;BME280;18207;32.078;34.818;2022-08-01T01:55:17;99851.09;;;32.06;46.38
23619;BME280;18207;32.078;34.818;2022-08-01T01:57:51;99853.56;;;32.04;46.64
23619;BME280;18207;32.078;34.818;2022-08-01T02:00:27;99847.50;;;32.02;46.64
23619;BME280;18207;32.078;34.818;2022-08-01T02:03:01;99850.34;;;32.02;46.60
23619;BME280;18207;32.078;34.818;2022-08-01T02:05:35;99861.38;;;32.00;46.64
23619;BME280;18207;32.078;34.818;2022-08-01T02:08:09;99858.16;;;31.98;46.28
23619;BME280;18207;32.078;34.818;2022-08-01T02:10:41;99859.84;;;31.95;46.93
23619;BME280;18207;32.078;34.818;2022-08-01T02:13:37;99854.56;;;31.94;46.81
23619;BME280;18207;32.078;34.818;2022-08-01T02:16:11;99854.56;;;31.94;46.25
23619;BME280;18207;32.078;34.818;2022-08-01T02:18:43;99850.94;;;31.93;46.89
23619;BME280;18207;32.078;34.818;2022-08-01T02:21:21;99853.34;;;31.95;46.54
23619;BME280;18207;32.078;34.818;2022-08-01T02:23:57;99861.06;;;31.94;46.35
23619;BME280;18207;32.078;34.818;2022-08-01T02:26:34;99850.94;;;31.93;46.44
23619;BME280;18207;32.078;34.818;2022-08-01T02:29:15;99866.38;;;31.92;46.64
23619;BME280;18207;32.078;34.818;2022-08-01T02:31:54;99858.31;;;31.91;46.96
23619;BME280;18207;32.078;34.818;2022-08-01T02:34:28;99864.78;;;31.91;46.92
23619;BME280;18207;32.078;34.818;2022-08-01T02:37:04;99866.84;;;31.91;46.83
23619;BME280;18207;32.078;34.818;2022-08-01T02:39:38;99867.25;;;31.89;46.51
23619;BME280;18207;32.078;34.818;2022-08-01T02:42:13;99873.81;;;31.86;46.48
23619;BME280;18207;32.078;34.818;2022-08-01T02:44:48;99877.91;;;31.85;46.63
23619;BME280;18207;32.078;34.818;2022-08-01T02:47:25;99880.38;;;31.83;46.24
23619;BME280;18207;32.078;34.818;2022-08-01T02:49:59;99879.97;;;31.81;46.53
23619;BME280;18207;32.078;34.818;2022-08-01T02:52:32;99882.81;;;31.81;46.96
23619;BME280;18207;32.078;34.818;2022-08-01T02:55:06;99882.81;;;31.81;46.68
23619;BME280;18207;32.078;34.818;2022-08-01T02:57:39;99872.31;;;31.78;46.37
23619;BME280;18207;32.078;34.818;2022-08-01T03:00:20;99884.91;;;31.77;46.59
23619;BME280;18207;32.078;34.818;2022-08-01T03:02:56;99885.75;;;31.78;46.31
23619;BME280;18207;32.078;34.818;2022-08-01T03:05:28;99881.28;;;31.77;46.68
23619;BME280;18207;32.078;34.818;2022-08-01T03:08:01;99877.66;;;31.76;46.59
23619;BME280;18207;32.078;34.818;2022-08-01T03:10:45;99878.06;;;31.75;46.91
23619;BME280;18207;32.078;34.818;2022-08-01T03:13:19;99885.81;;;31.74;47.24
23619;BME280;18207;32.078;34.818;2022-08-01T03:15:54;99875.66;;;31.73;46.62
23619;BME280;18207;32.078;34.818;2022-08-01T03:18:28;99884.19;;;31.73;46.38
23619;BME280;18207;32.078;34.818;2022-08-01T03:21:02;99878.94;;;31.72;47.00
23619;BME280;18207;32.078;34.818;2022-08-01T03:23:37;99880.19;;;31.71;46.97
23619;BME280;18207;32.078;34.818;2022-08-01T03:26:10;99885.44;;;31.72;47.11
23619;BME280;18207;32.078;34.818;2022-08-01T03:28:44;99880.97;;;31.71;47.22
23619;BME280;18207;32.078;34.818;2022-08-01T03:31:18;99881.78;;;31.72;46.75
23619;BME280;18207;32.078;34.818;2022-08-01T03:33:52;99886.22;;;31.73;47.16
23619;BME280;18207;32.078;34.818;2022-08-01T03:36:27;99874.06;;;31.72;47.26
23619;BME280;18207;32.078;34.818;2022-08-01T03:39:03;99880.13;;;31.74;46.60
23619;BME280;18207;32.078;34.818;2022-08-01T03:41:43;99871.59;;;31.74;46.75
23619;BME280;18207;32.078;34.818;2022-08-01T03:44:27;99880.91;;;31.75;47.17
23619;BME280;18207;32.078;34.818;2022-08-01T03:47:05;99879.66;;;31.76;47.18
23619;BME280;18207;32.078;34.818;2022-08-01T03:49:44;99877.66;;;31.76;47.10
23619;BME280;18207;32.078;34.818;2022-08-01T03:52:16;99886.97;;;31.77;47.34
23619;BME280;18207;32.078;34.818;2022-08-01T03:54:49;99880.84;;;31.78;47.31
23619;BME280;18207;32.078;34.818;2022-08-01T03:57:25;99888.97;;;31.80;46.77
23619;BME280;18207;32.078;34.818;2022-08-01T04:00:06;99891.78;;;31.80;46.68
23619;BME280;18207;32.078;34.818;2022-08-01T04:02:39;99898.28;;;31.80;47.25
23619;BME280;18207;32.078;34.818;2022-08-01T04:05:12;99890.91;;;31.83;46.95
23619;BME280;18207;32.078;34.818;2022-08-01T04:07:47;99891.28;;;31.85;46.71
23619;BME280;18207;32.078;34.818;2022-08-01T04:10:24;99889.25;;;31.85;46.78
23619;BME280;18207;32.078;34.818;2022-08-01T04:12:56;99885.97;;;31.87;47.04
23619;BME280;18207;32.078;34.818;2022-08-01T04:15:27;99888.75;;;31.90;46.83
23619;BME280;18207;32.078;34.818;2022-08-01T04:17:58;99884.69;;;31.91;47.51
23619;BME280;18207;32.078;34.818;2022-08-01T04:20:31;99891.53;;;31.94;47.39
23619;BME280;18207;32.078;34.818;2022-08-01T04:23:04;99898.03;;;31.94;46.87
23619;BME280;18207;32.078;34.818;2022-08-01T04:25:38;99897.97;;;31.98;47.02
23619;BME280;18207;32.078;34.818;2022-08-01T04:28:12;99892.66;;;32.00;46.98
23619;BME280;18207;32.078;34.818;2022-08-01T04:30:48;99899.06;;;32.04;46.82
23619;BME280;18207;32.078;34.818;2022-08-01T04:33:30;99897.41;;;32.06;46.89
23619;BME280;18207;32.078;34.818;2022-08-01T04:36:10;99899.03;;;32.07;47.33
23619;BME280;18207;32.078;34.818;2022-08-01T04:38:45;99889.25;;;32.08;47.04
23619;BME280;18207;32.078;34.818;2022-08-01T04:41:17;99897.72;;;32.12;47.01
23619;BME280;18207;32.078;34.818;2022-08-01T04:43:49;99903.78;;;32.14;46.85
23619;BME280;18207;32.078;34.818;2022-08-01T04:46:21;99900.53;;;32.15;47.35
23619;BME280;18207;32.078;34.818;2022-08-01T04:48:53;99899.63;;;32.18;47.02
23619;BME280;18207;32.078;34.818;2022-08-01T04:51:27;99892.28;;;32.21;47.33
23619;BME280;18207;32.078;34.818;2022-08-01T04:53:59;99895.84;;;32.24;46.88
23619;BME280;18207;32.078;34.818;2022-08-01T04:56:31;99907.59;;;32.26;47.46
23619;BME280;18207;32.078;34.818;2022-08-01T04:59:03;99898.22;;;32.29;47.14
23619;BME280;18207;32.078;34.818;2022-08-01T05:01:50;99902.22;;;32.32;47.42
23619;BME280;18207;32.078;34.818;2022-08-01T05:04:23;99905.38;;;32.37;47.20
23619;BME280;18207;32.078;34.818;2022-08-01T05:06:56;99899.53;;;32.44;47.62
23619;BME280;18207;32.078;34.818;2022-08-01T05:09:28;99908.72;;;32.52;47.12
23619;BME280;18207;32.078;34.818;2022-08-01T05:12:00;99905.38;;;32.57;47.09
23619;BME280;18207;32.078;34.818;2022-08-01T05:14:32;99899.63;;;32.60;47.44
23619;BME280;18207;32.078;34.818;2022-08-01T05:17:06;99895.50;;;32.65;46.91
23619;BME280;18207;32.078;34.818;2022-08-01T05:19:39;99899.88;;;32.69;47.36
23619;BME280;18207;32.078;34.818;2022-08-01T05:22:13;99902.63;;;32.73;47.71
23619;BME280;18207;32.078;34.818;2022-08-01T05:24:45;99898.47;;;32.77;47.01
23619;BME280;18207;32.078;34.818;2022-08-01T05:27:16;99894.31;;;32.82;47.54
23619;BME280;18207;32.078;34.818;2022-08-01T05:29:48;99901.94;;;32.85;47.38
23619;BME280;18207;32.078;34.818;2022-08-01T05:32:19;99898.59;;;32.90;47.55
23619;BME280;18207;32.078;34.818;2022-08-01T05:34:50;99889.53;;;32.95;46.91
23619;BME280;18207;32.078;34.818;2022-08-01T05:37:23;99890.25;;;32.99;46.98
23619;BME280;18207;32.078;34.818;2022-08-01T05:39:54;99893.03;;;33.02;47.45
23619;BME280;18207;32.078;34.818;2022-08-01T05:42:25;99904.34;;;33.06;47.58
23619;BME280;18207;32.078;34.818;2022-08-01T05:44:57;99894.13;;;33.08;46.96
23619;BME280;18207;32.078;34.818;2022-08-01T05:47:28;99892.00;;;33.12;46.82
23619;BME280;18207;32.078;34.818;2022-08-01T05:49:59;99900.47;;;33.15;47.04
23619;BME280;18207;32.078;34.818;2022-08-01T05:52:33;99894.28;;;33.20;47.12
23619;BME280;18207;32.078;34.818;2022-08-01T05:55:06;99895.78;;;33.25;46.93
23619;BME280;18207;32.078;34.818;2022-08-01T05:57:37;99895.63;;;33.32;46.88
23619;BME280;18207;32.078;34.818;2022-08-01T06:00:10;99895.91;;;33.37;47.37
23619;BME280;18207;32.078;34.818;2022-08-01T06:02:42;99902.31;;;33.41;47.12
23619;BME280;18207;32.078;34.818;2022-08-01T06:05:14;99900.16;;;33.45;47.20
23619;BME280;18207;32.078;34.818;2022-08-01T06:07:46;99893.59;;;33.48;47.27
23619;BME280;18207;32.078;34.818;2022-08-01T06:10:17;99889.41;;;33.53;47.31
23619;BME280;18207;32.078;34.818;2022-08-01T06:12:48;99891.75;;;33.58;46.79
23619;BME280;18207;32.078;34.818;2022-08-01T06:15:19;99899.00;;;33.62;47.06
23619;BME280;18207;32.078;34.818;2022-08-01T06:17:51;99892.75;;;33.67;47.26
23619;BME280;18207;32.078;34.818;2022-08-01T06:20:22;99897.09;;;33.72;46.98
23619;BME280;18207;32.078;34.818;2022-08-01T06:22:54;99898.16;;;33.78;46.65
23619;BME280;18207;32.078;34.818;2022-08-01T06:25:26;99903.72;;;33.85;47.40
23619;BME280;18207;32.078;34.818;2022-08-01T06:27:57;99903.97;;;33.90;47.30
23619;BME280;18207;32.078;34.818;2022-08-01T06:30:28;99908.75;;;33.93;47.08
23619;BME280;18207;32.078;34.818;2022-08-01T06:33:00;99903.00;;;33.97;46.41
23619;BME280;18207;32.078;34.818;2022-08-01T06:35:32;99908.50;;;34.03;47.11
23619;BME280;18207;32.078;34.818;2022-08-01T06:38:05;99909.56;;;34.09;47.04
23619;BME280;18207;32.078;34.818;2022-08-01T06:40:36;99909.84;;;34.15;46.81
23619;BME280;18207;32.078;34.818;2022-08-01T06:43:07;99910.56;;;34.19;46.30
23619;BME280;18207;32.078;34.818;2022-08-01T06:45:40;99909.22;;;34.23;46.57
23619;BME280;18207;32.078;34.818;2022-08-01T06:48:10;99907.03;;;34.27;46.38
23619;BME280;18207;32.078;34.818;2022-08-01T06:50:41;99909.00;;;34.30;46.29
23619;BME280;18207;32.078;34.818;2022-08-01T06:53:15;99909.25;;;34.36;46.75
23619;BME280;18207;32.078;34.818;2022-08-01T06:55:47;99911.66;;;34.37;46.25
23619;BME280;18207;32.078;34.818;2022-08-01T06:58:18;99914.88;;;34.39;46.39
23619;BME280;18207;32.078;34.818;2022-08-01T07:00:58;99910.66;;;34.44;46.68
23619;BME280;18207;32.078;34.818;2022-08-01T07:03:32;99909.66;;;34.50;46.23
23619;BME280;18207;32.078;34.818;2022-08-01T07:06:23;99901.81;;;34.54;46.13
23619;BME280;18207;32.078;34.818;2022-08-01T07:08:57;99901.28;;;34.59;46.56
23619;BME280;18207;32.078;34.818;2022-08-01T07:11:39;99903.91;;;34.66;46.57
23619;BME280;18207;32.078;34.818;2022-08-01T07:14:10;99903.84;;;34.70;45.95
23619;BME280;18207;32.078;34.818;2022-08-01T07:16:41;99909.34;;;34.77;46.39
23619;BME280;18207;32.078;34.818;2022-08-01T07:19:12;99907.09;;;34.84;46.35
23619;BME280;18207;32.078;34.818;2022-08-01T07:21:43;99906.03;;;34.91;46.17
23619;BME280;18207;32.078;34.818;2022-08-01T07:24:19;99913.28;;;34.95;45.82
23619;BME280;18207;32.078;34.818;2022-08-01T07:26:53;99911.56;;;34.97;46.38
23619;BME280;18207;32.078;34.818;2022-08-01T07:29:45;99919.69;;;34.99;46.28
23619;BME280;18207;32.078;34.818;2022-08-01T07:32:16;99922.88;;;35.01;46.16
23619;BME280;18207;32.078;34.818;2022-08-01T07:34:47;99921.09;;;35.07;46.28
23619;BME280;18207;32.078;34.818;2022-08-01T07:37:18;99919.41;;;35.09;46.05
23619;BME280;18207;32.078;34.818;2022-08-01T07:40:13;99909.78;;;35.16;45.58
23619;BME280;18207;32.078;34.818;2022-08-01T07:42:44;99915.72;;;35.21;45.98
23619;BME280;18207;32.078;34.818;2022-08-01T07:45:15;99916.78;;;35.27;45.70
23619;BME280;18207;32.078;34.818;2022-08-01T07:47:47;99911.75;;;35.31;45.60
23619;BME280;18207;32.078;34.818;2022-08-01T07:50:18;99904.22;;;35.37;45.56
23619;BME280;18207;32.078;34.818;2022-08-01T07:52:49;99910.16;;;35.43;45.77
23619;BME280;18207;32.078;34.818;2022-08-01T07:55:22;99910.41;;;35.48;45.37
23619;BME280;18207;32.078;34.818;2022-08-01T07:57:53;99913.16;;;35.52;45.80
23619;BME280;18207;32.078;34.818;2022-08-01T08:00:25;99901.59;;;35.55;45.87
23619;BME280;18207;32.078;34.818;2022-08-01T08:02:57;99904.00;;;35.57;45.80
23619;BME280;18207;32.078;34.818;2022-08-01T08:05:29;99900.34;;;35.56;45.22
23619;BME280;18207;32.078;34.818;2022-08-01T08:08:21;99902.28;;;35.59;45.73
23619;BME280;18207;32.078;34.818;2022-08-01T08:10:55;99901.25;;;35.66;45.73
23619;BME280;18207;32.078;34.818;2022-08-01T08:13:26;99907.66;;;35.70;45.52
23619;BME280;18207;32.078;34.818;2022-08-01T08:15:56;99903.41;;;35.74;45.62
23619;BME280;18207;32.078;34.818;2022-08-01T08:18:28;99904.91;;;35.79;45.11
23619;BME280;18207;32.078;34.818;2022-08-01T08:21:00;99899.88;;;35.83;45.45
23619;BME280;18207;32.078;34.818;2022-08-01T08:23:33;99889.91;;;35.87;44.97
23619;BME280;18207;32.078;34.818;2022-08-01T08:26:23;99891.38;;;35.91;45.27
23619;BME280;18207;32.078;34.818;2022-08-01T08:28:55;99888.41;;;35.95;45.00
23619;BME280;18207;32.078;34.818;2022-08-01T08:31:26;99887.47;;;35.98;44.96
23619;BME280;18207;32.078;34.818;2022-08-01T08:34:17;99891.50;;;36.00;44.96
23619;BME280;18207;32.078;34.818;2022-08-01T08:36:49;99889.00;;;36.02;45.33
23619;BME280;18207;32.078;34.818;2022-08-01T08:39:21;99889.31;;;36.04;45.04
23619;BME280;18207;32.078;34.818;2022-08-01T08:41:53;99885.53;;;36.07;45.10
23619;BME280;18207;32.078;34.818;2022-08-01T08:44:25;99889.66;;;36.06;45.00
23619;BME280;18207;32.078;34.818;2022-08-01T08:47:01;99884.25;;;36.08;45.06
23619;BME280;18207;32.078;34.818;2022-08-01T08:49:36;99886.66;;;36.10;44.85
23619;BME280;18207;32.078;34.818;2022-08-01T08:52:11;99886.88;;;36.15;45.33
23619;BME280;18207;32.078;34.818;2022-08-01T08:54:44;99888.00;;;36.18;45.35
23619;BME280;18207;32.078;34.818;2022-08-01T08:57:20;99890.28;;;36.23;44.62
23619;BME280;18207;32.078;34.818;2022-08-01T08:59:52;99880.44;;;36.24;45.10
23619;BME280;18207;32.078;34.818;2022-08-01T09:02:23;99888.09;;;36.27;45.00
23619;BME280;18207;32.078;34.818;2022-08-01T09:04:55;99883.97;;;36.28;45.11
23619;BME280;18207;32.078;34.818;2022-08-01T09:07:26;99880.66;;;36.29;44.97
23619;BME280;18207;32.078;34.818;2022-08-01T09:10:01;99881.78;;;36.32;44.83
23619;BME280;18207;32.078;34.818;2022-08-01T09:12:35;99878.44;;;36.33;44.89
23619;BME280;18207;32.078;34.818;2022-08-01T09:15:09;99885.75;;;36.34;44.51
23619;BME280;18207;32.078;34.818;2022-08-01T09:17:41;99878.34;;;36.37;44.27
23619;BME280;18207;32.078;34.818;2022-08-01T09:20:24;99886.09;;;36.36;44.74
23619;BME280;18207;32.078;34.818;2022-08-01T09:22:55;99885.63;;;36.38;44.28
23619;BME280;18207;32.078;34.818;2022-08-01T09:25:27;99890.56;;;36.37;44.21
23619;BME280;18207;32.078;34.818;2022-08-01T09:28:16;99894.56;;;36.40;44.26
23619;BME280;18207;32.078;34.818;2022-08-01T09:30:49;99892.81;;;36.42;44.62
23619;BME280;18207;32.078;34.818;2022-08-01T09:33:20;99887.47;;;36.44;44.22
23619;BME280;18207;32.078;34.818;2022-08-01T09:36:04;99895.94;;;36.48;44.23
23619;BME280;18207;32.078;34.818;2022-08-01T09:38:40;99888.50;;;36.50;44.53
23619;BME280;18207;32.078;34.818;2022-08-01T09:41:19;99888.81;;;36.52;44.70
23619;BME280;18207;32.078;34.818;2022-08-01T09:44:08;99883.91;;;36.53;44.59
23619;BME280;18207;32.078;34.818;2022-08-01T09:46:51;99881.72;;;36.57;44.59
23619;BME280;18207;32.078;34.818;2022-08-01T09:49:31;99885.38;;;36.57;44.63
23619;BME280;18207;32.078;34.818;2022-08-01T09:52:20;99894.75;;;36.58;44.39
23619;BME280;18207;32.078;34.818;2022-08-01T09:54:57;99885.69;;;36.59;44.55
23619;BME280;18207;32.078;34.818;2022-08-01T09:57:29;99893.03;;;36.60;44.18
23619;BME280;18207;32.078;34.818;2022-08-01T10:03:22;99880.63;;;36.63;44.20
23619;BME280;18207;32.078;34.818;2022-08-01T10:05:55;99881.88;;;36.62;44.56
23619;BME280;18207;32.078;34.818;2022-08-01T10:08:27;99874.59;;;36.61;43.91
23619;BME280;18207;32.078;34.818;2022-08-01T10:11:10;99874.25;;;36.59;44.48
23619;BME280;18207;32.078;34.818;2022-08-01T10:13:43;99871.81;;;36.58;44.35
23619;BME280;18207;32.078;34.818;2022-08-01T10:16:18;99878.38;;;36.58;44.54
23619;BME280;18207;32.078;34.818;2022-08-01T10:18:52;99872.16;;;36.60;43.99
23619;BME280;18207;32.078;34.818;2022-08-01T10:21:27;99873.28;;;36.62;44.49
23619;BME280;18207;32.078;34.818;2022-08-01T10:24:20;99875.72;;;36.64;44.53
23619;BME280;18207;32.078;34.818;2022-08-01T10:27:01;99876.97;;;36.63;43.96
23619;BME280;18207;32.078;34.818;2022-08-01T10:29:41;99875.84;;;36.60;44.57
23619;BME280;18207;32.078;34.818;2022-08-01T10:32:35;99877.09;;;36.59;43.98
23619;BME280;18207;32.078;34.818;2022-08-01T10:35:08;99874.59;;;36.61;44.22
23619;BME280;18207;32.078;34.818;2022-08-01T10:38:04;99870.91;;;36.61;44.54
23619;BME280;18207;32.078;34.818;2022-08-01T10:40:41;99874.09;;;36.63;43.96
23619;BME280;18207;32.078;34.818;2022-08-01T10:43:13;99876.50;;;36.64;43.98
23619;BME280;18207;32.078;34.818;2022-08-01T10:45:50;99875.22;;;36.65;44.48
23619;BME280;18207;32.078;34.818;2022-08-01T10:48:32;99876.84;;;36.66;44.39
23619;BME280;18207;32.078;34.818;2022-08-01T10:51:08;99884.63;;;36.66;44.38
23619;BME280;18207;32.078;34.818;2022-08-01T10:53:51;99876.84;;;36.66;44.48
23619;BME280;18207;32.078;34.818;2022-08-01T10:56:24;99878.56;;;36.64;44.24
23619;BME280;18207;32.078;34.818;2022-08-01T10:59:09;99879.84;;;36.63;44.12
23619;BME280;18207;32.078;34.818;2022-08-01T11:01:41;99863.44;;;36.63;44.24
23619;BME280;18207;32.078;34.818;2022-08-01T11:04:18;99873.97;;;36.66;44.58
23619;BME280;18207;32.078;34.818;2022-08-01T11:07:03;99872.22;;;36.69;44.50
23619;BME280;18207;32.078;34.818;2022-08-01T11:09:45;99878.28;;;36.71;43.99
23619;BME280;18207;32.078;34.818;2022-08-01T11:12:19;99870.63;;;36.68;43.99
23619;BME280;18207;32.078;34.818;2022-08-01T11:15:21;99864.69;;;36.62;44.10
23619;BME280;18207;32.078;34.818;2022-08-01T11:18:03;99864.53;;;36.57;44.21
23619;BME280;18207;32.078;34.818;2022-08-01T11:20:56;99878.50;;;36.55;44.15
23619;BME280;18207;32.078;34.818;2022-08-01T11:23:50;99873.56;;;36.55;44.50
23619;BME280;18207;32.078;34.818;2022-08-01T11:26:24;99875.97;;;36.57;44.17
23619;BME280;18207;32.078;34.818;2022-08-01T11:29:17;99867.69;;;36.59;43.75
23619;BME280;18207;32.078;34.818;2022-08-01T11:31:50;99861.97;;;36.59;44.46
23619;BME280;18207;32.078;34.818;2022-08-01T11:34:55;99870.56;;;36.59;43.92
23619;BME280;18207;32.078;34.818;2022-08-01T11:37:29;99873.91;;;36.57;44.29
23619;BME280;18207;32.078;34.818;2022-08-01T11:40:18;99864.97;;;36.55;44.30
23619;BME280;18207;32.078;34.818;2022-08-01T11:43:18;99873.69;;;36.52;44.46
23619;BME280;18207;32.078;34.818;2022-08-01T11:45:49;99875.56;;;36.46;44.41
23619;BME280;18207;32.078;34.818;2022-08-01T11:48:23;99879.81;;;36.41;44.11
23619;BME280;18207;32.078;34.818;2022-08-01T11:50:56;99880.38;;;36.36;43.84
23619;BME280;18207;32.078;34.818;2022-08-01T11:53:31;99868.72;;;36.31;44.30
23619;BME280;18207;32.078;34.818;2022-08-01T11:56:04;99870.81;;;36.30;43.82
23619;BME280;18207;32.078;34.818;2022-08-01T11:58:35;99865.38;;;36.32;44.64
23619;BME280;18207;32.078;34.818;2022-08-01T12:01:14;99872.41;;;36.31;44.24
23619;BME280;18207;32.078;34.818;2022-08-01T12:03:45;99871.59;;;36.31;44.24
23619;BME280;18207;32.078;34.818;2022-08-01T12:06:28;99872.28;;;36.35;44.14
23619;BME280;18207;32.078;34.818;2022-08-01T12:09:22;99863.00;;;36.31;43.91
23619;BME280;18207;32.078;34.818;2022-08-01T12:11:53;99864.38;;;36.26;43.96
23619;BME280;18207;32.078;34.818;2022-08-01T12:14:25;99864.38;;;36.26;44.50
23619;BME280;18207;32.078;34.818;2022-08-01T12:16:55;99864.88;;;36.25;44.30
23619;BME280;18207;32.078;34.818;2022-08-01T12:19:26;99864.88;;;36.25;44.47
23619;BME280;18207;32.078;34.818;2022-08-01T12:22:08;99863.13;;;36.27;43.90
23619;BME280;18207;32.078;34.818;2022-08-01T12:24:43;99866.91;;;36.24;44.49
23619;BME280;18207;32.078;34.818;2022-08-01T12:27:25;99867.72;;;36.25;44.43
23619;BME280;18207;32.078;34.818;2022-08-01T12:29:58;99860.88;;;36.22;44.42
23619;BME280;18207;32.078;34.818;2022-08-01T12:32:32;99856.84;;;36.20;44.61
23619;BME280;18207;32.078;34.818;2022-08-01T12:35:10;99854.47;;;36.18;43.72
23619;BME280;18207;32.078;34.818;2022-08-01T12:37:47;99858.13;;;36.19;44.02
23619;BME280;18207;32.078;34.818;2022-08-01T12:40:23;99860.97;;;36.19;44.14
23619;BME280;18207;32.078;34.818;2022-08-01T12:42:57;99857.66;;;36.20;44.57
23619;BME280;18207;32.078;34.818;2022-08-01T12:45:30;99858.47;;;36.21;44.23
23619;BME280;18207;32.078;34.818;2022-08-01T12:48:09;99867.84;;;36.21;44.65
23619;BME280;18207;32.078;34.818;2022-08-01T12:50:45;99862.91;;;36.22;44.04
23619;BME280;18207;32.078;34.818;2022-08-01T12:53:17;99865.00;;;36.21;44.28
23619;BME280;18207;32.078;34.818;2022-08-01T12:55:53;99859.28;;;36.21;44.61
23619;BME280;18207;32.078;34.818;2022-08-01T12:58:33;99860.66;;;36.17;44.00
23619;BME280;18207;32.078;34.818;2022-08-01T13:01:07;99869.34;;;36.13;44.51
23619;BME280;18207;32.078;34.818;2022-08-01T13:03:41;99852.31;;;36.10;44.09
23619;BME280;18207;32.078;34.818;2022-08-01T13:06:30;99856.44;;;36.09;44.13
23619;BME280;18207;32.078;34.818;2022-08-01T13:09:07;99855.66;;;36.08;44.09
23619;BME280;18207;32.078;34.818;2022-08-01T13:11:41;99857.69;;;36.08;44.07
23619;BME280;18207;32.078;34.818;2022-08-01T13:14:31;99856.56;;;36.05;44.40
23619;BME280;18207;32.078;34.818;2022-08-01T13:17:08;99856.69;;;36.02;44.21
23619;BME280;18207;32.078;34.818;2022-08-01T13:19:43;99851.44;;;36.00;44.48
23619;BME280;18207;32.078;34.818;2022-08-01T13:22:15;99858.88;;;35.98;44.50
23619;BME280;18207;32.078;34.818;2022-08-01T13:24:47;99857.25;;;35.97;44.57
23619;BME280;18207;32.078;34.818;2022-08-01T13:27:22;99855.66;;;35.96;44.47
23619;BME280;18207;32.078;34.818;2022-08-01T13:30:11;99856.91;;;35.95;44.20
23619;BME280;18207;32.078;34.818;2022-08-01T13:32:43;99855.31;;;35.94;44.21
23619;BME280;18207;32.078;34.818;2022-08-01T13:35:14;99850.84;;;35.93;44.54
23619;BME280;18207;32.078;34.818;2022-08-01T13:37:51;99841.16;;;35.90;44.58
23619;BME280;18207;32.078;34.818;2022-08-01T13:40:27;99843.66;;;35.88;44.84